The Hague, Netherlands
Current Conditions -  °F | °C
As of 1:55 PM on Tuesday 21 Oct 2014 (Local Time) from EHRD Reporting Station
Rain Showers Rain Showers  
Wind Chill: 54°   Ceiling: 1500
Heat Index: 54°   Visibility: 3mi
Dew Point: 52°   Wind: 22mph
Humidity: 94%   Direction: 290°WNW
Pressure: 29.44"   Gusts: 36mph
Location:  52.08°N, 4.31°E
Report Text: EHRD 211155Z AUTO 29019G31KT 250V330 4900 -SHRA FEW008BKN015CB BKN022 12/11 Q0997 RERA TEMPO 30030G43KT BECMG 9999
Loading
Personal Weather Stations






























Interactive Weather Map
Tropical Storm Tracking
New forecast layout! Learn more

10-Day Weather Forecast

Advertisements
Track Severe Weather on mobile